createdAt,value
2023-03-06T00:00:49.646Z,91.36
2023-03-06T00:03:19.295Z,91.59
2023-03-06T00:05:46.412Z,91.83
2023-03-06T00:08:13.376Z,91.83
2023-03-06T00:10:40.554Z,92.19
2023-03-06T00:13:12.561Z,92.03
2023-03-06T00:15:39.422Z,91.74
2023-03-06T00:18:07.248Z,91.52
2023-03-06T00:20:35.098Z,91.69
2023-03-06T00:23:02.211Z,91.76
2023-03-06T00:25:29.150Z,91.65
2023-03-06T00:27:56.140Z,91.90
2023-03-06T00:30:24.907Z,91.83
2023-03-06T00:32:53.253Z,91.94
2023-03-06T00:35:20.240Z,92.17
2023-03-06T00:37:47.142Z,92.37
2023-03-06T00:40:17.951Z,92.34
2023-03-06T00:42:45.446Z,92.26
2023-03-06T00:45:12.697Z,92.28
2023-03-06T00:47:40.293Z,91.92
2023-03-06T00:50:08.465Z,92.18
2023-03-06T00:52:35.490Z,92.08
2023-03-06T00:55:02.728Z,92.05
2023-03-06T01:11:58.564Z,91.81
2023-03-06T01:14:25.190Z,91.61
2023-03-06T01:16:52.002Z,91.58
2023-03-06T01:19:18.642Z,91.80
2023-03-06T01:21:45.870Z,91.75
2023-03-06T01:24:12.435Z,91.81
2023-03-06T01:26:39.029Z,91.78
2023-03-06T01:29:06.486Z,91.37
2023-03-06T01:31:33.673Z,91.64
2023-03-06T01:34:00.677Z,91.13
2023-03-06T01:36:27.299Z,91.45
2023-03-06T01:38:53.929Z,91.52
2023-03-06T01:41:21.567Z,91.75
2023-03-06T01:43:48.954Z,91.91
2023-03-06T01:46:30.446Z,91.89
2023-03-06T01:49:08.530Z,91.87
2023-03-06T01:51:43.285Z,91.96
2023-03-06T01:54:17.836Z,91.97
2023-03-06T01:56:48.406Z,92.50
2023-03-06T01:59:15.163Z,92.43
2023-03-06T02:01:43.026Z,92.37
2023-03-06T02:04:10.385Z,92.26
2023-03-06T02:06:39.748Z,92.36
2023-03-06T02:09:06.968Z,92.22
2023-03-06T02:11:33.985Z,92.46
2023-03-06T02:14:00.661Z,92.27
2023-03-06T02:16:31.109Z,92.23
2023-03-06T02:19:00.392Z,92.15
2023-03-06T02:21:37.204Z,92.37
2023-03-06T02:24:18.843Z,92.46
2023-03-06T02:26:47.653Z,92.58
2023-03-06T02:29:21.732Z,92.58
2023-03-06T02:31:48.304Z,92.51
2023-03-06T02:34:14.857Z,92.45
2023-03-06T02:36:45.875Z,92.46
2023-03-06T02:39:13.531Z,92.64
2023-03-06T02:41:41.041Z,92.39
2023-03-06T02:44:07.956Z,92.63
2023-03-06T02:46:34.747Z,92.83
2023-03-06T02:49:01.403Z,92.44
2023-03-06T02:51:28.470Z,92.58
2023-03-06T02:53:55.125Z,92.61
2023-03-06T02:56:21.970Z,92.34
2023-03-06T02:58:48.607Z,92.85
2023-03-06T03:01:15.337Z,92.80
2023-03-06T03:03:42.071Z,92.32
2023-03-06T03:06:08.656Z,92.42
2023-03-06T03:08:35.334Z,92.04
2023-03-06T03:11:03.068Z,92.36
2023-03-06T03:13:29.722Z,92.08
2023-03-06T03:16:07.936Z,92.19
2023-03-06T03:18:35.739Z,92.19
2023-03-06T03:21:06.725Z,92.20
2023-03-06T03:23:33.423Z,92.16
2023-03-06T03:26:18.704Z,92.37
2023-03-06T03:28:45.732Z,92.44
2023-03-06T03:31:13.588Z,92.42
2023-03-06T03:33:40.880Z,92.34
2023-03-06T03:36:08.078Z,92.36
2023-03-06T03:38:35.077Z,92.35
2023-03-06T03:41:02.137Z,92.10
2023-03-06T03:43:28.826Z,92.20
2023-03-06T03:45:55.481Z,92.05
2023-03-06T03:48:22.077Z,91.98
2023-03-06T03:50:48.977Z,91.65
2023-03-06T03:53:15.582Z,91.96
2023-03-06T03:55:42.273Z,91.56
2023-03-06T03:58:08.814Z,91.60
2023-03-06T04:00:35.497Z,91.68
2023-03-06T04:03:02.053Z,91.69
2023-03-06T04:05:28.719Z,91.48
2023-03-06T04:07:55.308Z,91.42
2023-03-06T04:10:21.969Z,91.60
2023-03-06T04:12:48.715Z,91.68
2023-03-06T04:15:15.391Z,91.79
2023-03-06T04:17:42.010Z,91.63
2023-03-06T04:20:09.552Z,91.22
2023-03-06T04:22:36.206Z,91.24
2023-03-06T04:25:02.896Z,91.48
2023-03-06T04:27:29.488Z,91.80
2023-03-06T04:29:56.525Z,91.78
2023-03-06T04:32:24.036Z,91.29
2023-03-06T04:34:51.189Z,91.15
2023-03-06T04:37:22.966Z,91.27
2023-03-06T04:39:49.850Z,91.55
2023-03-06T04:42:16.727Z,91.40
2023-03-06T04:44:43.471Z,91.48
2023-03-06T04:47:10.678Z,91.74
2023-03-06T04:49:37.570Z,91.54
2023-03-06T04:52:04.657Z,91.58
2023-03-06T04:54:31.319Z,91.41
2023-03-06T04:56:58.036Z,91.44
2023-03-06T04:59:25.185Z,91.23
2023-03-06T05:01:52.246Z,91.44
2023-03-06T05:04:18.893Z,91.38
2023-03-06T05:06:45.577Z,91.72
2023-03-06T05:09:12.246Z,91.65
2023-03-06T05:11:38.828Z,91.69
2023-03-06T05:14:05.446Z,91.95
2023-03-06T05:16:32.086Z,91.77
2023-03-06T05:18:58.745Z,91.42
2023-03-06T05:21:25.420Z,91.86
2023-03-06T05:23:51.991Z,91.34
2023-03-06T05:26:18.584Z,91.20
2023-03-06T05:28:45.347Z,91.37
2023-03-06T05:31:12.195Z,91.46
2023-03-06T05:33:38.780Z,91.45
2023-03-06T05:36:08.277Z,90.74
2023-03-06T05:38:35.334Z,90.48
2023-03-06T05:41:01.960Z,90.65
2023-03-06T05:43:28.525Z,90.57
2023-03-06T05:46:03.238Z,90.39
2023-03-06T05:48:30.064Z,90.44
2023-03-06T05:50:57.968Z,90.84
2023-03-06T05:53:24.538Z,90.93
2023-03-06T05:56:03.250Z,90.76
2023-03-06T05:58:31.224Z,90.62
2023-03-06T06:00:57.935Z,90.57
2023-03-06T06:03:25.236Z,90.49
2023-03-06T06:05:52.989Z,90.64
2023-03-06T06:08:21.096Z,90.48
2023-03-06T06:10:47.702Z,90.50
2023-03-06T06:13:14.371Z,90.56
2023-03-06T06:15:40.963Z,90.56
2023-03-06T06:18:07.790Z,90.65
2023-03-06T06:20:35.607Z,90.79
2023-03-06T06:23:02.434Z,90.87
2023-03-06T06:25:33.055Z,90.70
2023-03-06T06:28:03.819Z,90.50
2023-03-06T06:30:31.536Z,90.26
2023-03-06T06:32:59.849Z,90.39
2023-03-06T06:35:27.143Z,90.04
2023-03-06T06:37:53.833Z,90.08
2023-03-06T06:40:21.262Z,89.73
2023-03-06T06:42:47.961Z,90.08
2023-03-06T06:45:15.012Z,90.16
2023-03-06T06:47:41.866Z,89.35
2023-03-06T06:50:13.510Z,89.40
2023-03-06T06:52:40.545Z,89.02
2023-03-06T06:55:07.563Z,89.25
2023-03-06T06:57:34.322Z,89.14
2023-03-06T07:00:11.361Z,88.87
2023-03-06T07:02:38.064Z,88.29
2023-03-06T07:05:05.698Z,88.15
2023-03-06T07:07:38.157Z,87.78
2023-03-06T07:10:08.584Z,88.05
2023-03-06T07:12:35.617Z,87.74
2023-03-06T07:15:02.965Z,87.77
2023-03-06T07:17:29.704Z,87.72
2023-03-06T07:19:56.382Z,87.50
2023-03-06T07:22:23.472Z,87.80
2023-03-06T07:24:50.185Z,88.05
2023-03-06T07:27:16.947Z,87.68
2023-03-06T07:36:55.652Z,87.81
2023-03-06T07:39:52.162Z,87.71
2023-03-06T07:42:21.590Z,87.98
2023-03-06T07:44:55.616Z,87.59
2023-03-06T07:47:29.853Z,87.08
2023-03-06T07:55:47.854Z,87.04
2023-03-06T07:58:41.883Z,87.39
2023-03-06T08:06:56.416Z,86.60
2023-03-06T08:09:51.332Z,86.98
2023-03-06T08:21:18.871Z,86.18
2023-03-06T08:27:27.210Z,86.16
2023-03-06T08:30:42.078Z,86.29
2023-03-06T08:42:27.953Z,86.15
2023-03-06T08:44:58.774Z,86.01
2023-03-06T08:47:25.756Z,85.36
2023-03-06T08:49:52.411Z,85.95
2023-03-06T08:52:20.299Z,85.73
2023-03-06T08:54:47.383Z,85.60
2023-03-06T08:57:14.042Z,85.31
2023-03-06T08:59:42.158Z,85.39
2023-03-06T09:02:12.892Z,85.47
2023-03-06T09:04:39.405Z,85.43
2023-03-06T09:07:07.824Z,85.27
2023-03-06T09:09:34.500Z,85.06
2023-03-06T09:12:08.467Z,85.46
2023-03-06T09:14:35.170Z,84.83
2023-03-06T09:17:01.739Z,84.52
2023-03-06T09:22:08.873Z,84.07
2023-03-06T09:24:37.769Z,84.14
2023-03-06T09:27:04.391Z,83.80
2023-03-06T09:29:30.922Z,83.73
2023-03-06T09:31:57.562Z,83.72
2023-03-06T09:34:24.125Z,83.38
2023-03-06T09:36:57.329Z,83.23
2023-03-06T09:39:26.410Z,83.68
2023-03-06T09:41:55.001Z,83.77
2023-03-06T09:44:26.056Z,83.70
2023-03-06T09:47:32.031Z,83.81
2023-03-06T09:50:22.096Z,83.34
2023-03-06T09:53:21.865Z,83.51
2023-03-06T09:55:56.864Z,83.48
2023-03-06T09:58:26.822Z,83.41
2023-03-06T10:01:25.414Z,83.57
2023-03-06T10:04:20.732Z,83.25
2023-03-06T10:06:50.329Z,83.06
2023-03-06T10:09:22.393Z,82.91
2023-03-06T10:12:02.458Z,82.11
2023-03-06T10:14:49.475Z,82.65
2023-03-06T10:17:21.599Z,82.33
2023-03-06T10:19:49.975Z,82.04
2023-03-06T10:22:33.384Z,81.83
2023-03-06T10:25:14.641Z,82.00
2023-03-06T10:27:48.580Z,82.05
2023-03-06T10:30:23.074Z,81.77
2023-03-06T10:32:58.364Z,81.40
2023-03-06T10:35:38.114Z,81.63
2023-03-06T10:38:31.220Z,81.98
2023-03-06T10:41:04.913Z,81.89
2023-03-06T10:43:36.491Z,81.65
2023-03-06T10:46:05.334Z,81.84
2023-03-06T10:48:36.058Z,82.30
2023-03-06T10:51:23.037Z,82.30
2023-03-06T10:54:19.727Z,82.74
2023-03-06T10:56:48.609Z,83.96
2023-03-06T10:59:17.269Z,85.14
2023-03-06T11:01:48.868Z,86.34
2023-03-06T11:04:23.013Z,87.29
2023-03-06T11:07:04.538Z,87.44
2023-03-06T11:09:33.240Z,88.43
2023-03-06T11:12:21.907Z,88.18
2023-03-06T11:15:07.051Z,87.67
2023-03-06T11:17:36.209Z,86.89
2023-03-06T11:20:14.814Z,86.71
2023-03-06T11:22:41.827Z,86.85
2023-03-06T11:25:14.113Z,86.84
2023-03-06T11:27:49.284Z,86.44
2023-03-06T11:30:23.434Z,86.25
2023-03-06T11:33:04.526Z,85.72
2023-03-06T11:35:41.205Z,85.71
2023-03-06T11:38:51.648Z,85.00
2023-03-06T11:42:02.903Z,85.59
2023-03-06T11:45:03.079Z,86.06
2023-03-06T11:47:38.549Z,86.04
2023-03-06T11:50:28.907Z,85.62
2023-03-06T11:53:20.025Z,84.55
2023-03-06T11:56:11.068Z,84.99
2023-03-06T11:59:23.076Z,84.29
2023-03-06T12:01:58.002Z,84.26
2023-03-06T12:04:52.602Z,84.03
2023-03-06T12:07:29.741Z,84.24
2023-03-06T12:10:23.667Z,84.80
2023-03-06T12:12:50.648Z,85.53
2023-03-06T12:15:42.104Z,84.86
2023-03-06T12:18:47.555Z,84.90
2023-03-06T12:21:44.394Z,84.79
2023-03-06T12:24:44.662Z,84.42
2023-03-06T12:27:32.192Z,84.46
2023-03-06T12:30:21.761Z,84.57
2023-03-06T12:32:51.675Z,84.04
2023-03-06T12:35:48.993Z,84.74
2023-03-06T12:39:02.375Z,84.26
2023-03-06T12:41:56.382Z,84.59
2023-03-06T12:44:54.138Z,84.64
2023-03-06T12:47:24.200Z,83.88
2023-03-06T12:49:55.926Z,84.60
2023-03-06T12:52:30.525Z,84.25
2023-03-06T12:55:08.983Z,84.04
2023-03-06T12:57:39.136Z,84.45
2023-03-06T13:00:06.520Z,84.77
2023-03-06T13:02:58.270Z,85.26
2023-03-06T13:05:50.696Z,84.25
2023-03-06T13:08:37.159Z,83.47
2023-03-06T13:11:18.868Z,83.85
2023-03-06T13:13:50.721Z,84.00
2023-03-06T13:16:35.831Z,83.77
2023-03-06T13:21:57.920Z,84.11
2023-03-06T13:30:45.037Z,85.10
2023-03-06T13:33:25.341Z,85.34
2023-03-06T13:35:54.864Z,85.76
2023-03-06T13:38:29.523Z,86.21
2023-03-06T13:41:35.078Z,86.40
2023-03-06T13:44:23.385Z,86.36
2023-03-06T13:46:57.193Z,87.40
2023-03-06T13:49:24.800Z,88.37
2023-03-06T13:51:57.233Z,89.15
2023-03-06T13:54:50.351Z,89.48
2023-03-06T13:57:43.083Z,89.11
2023-03-06T14:00:32.003Z,89.11
2023-03-06T14:03:41.463Z,88.98
2023-03-06T14:06:37.043Z,88.00
2023-03-06T14:09:13.816Z,87.02
2023-03-06T14:11:57.960Z,87.35
2023-03-06T14:14:34.655Z,87.00
2023-03-06T14:19:44.964Z,87.04
2023-03-06T14:25:28.075Z,86.49
2023-03-06T14:27:58.223Z,86.23
2023-03-06T14:33:12.097Z,87.39
2023-03-06T14:38:20.330Z,87.39
2023-03-06T14:43:27.958Z,88.93
2023-03-06T14:48:44.703Z,88.99
2023-03-06T14:51:17.195Z,89.84
2023-03-06T14:53:45.743Z,90.54
2023-03-06T14:59:01.852Z,90.77
2023-03-06T15:01:40.141Z,90.35
2023-03-06T15:04:38.148Z,89.74
2023-03-06T15:07:12.948Z,88.49
2023-03-06T15:09:44.287Z,87.37
2023-03-06T15:12:23.121Z,87.23
2023-03-06T15:14:57.325Z,86.87
2023-03-06T15:17:32.819Z,86.91
2023-03-06T15:20:03.382Z,86.57
2023-03-06T15:22:41.104Z,86.19
2023-03-06T15:25:22.942Z,86.12
2023-03-06T15:27:55.675Z,85.72
2023-03-06T15:30:35.984Z,84.96
2023-03-06T15:33:28.590Z,85.13
2023-03-06T15:36:00.890Z,84.61
2023-03-06T15:38:42.734Z,83.99
2023-03-06T15:41:35.990Z,84.06
2023-03-06T15:44:12.546Z,83.69
2023-03-06T15:46:39.203Z,83.21
2023-03-06T15:49:14.629Z,83.67
2023-03-06T15:51:45.709Z,84.26
2023-03-06T15:54:15.680Z,83.37
2023-03-06T15:56:44.552Z,83.17
2023-03-06T15:59:22.216Z,83.34
2023-03-06T16:01:55.096Z,83.86
2023-03-06T16:04:23.354Z,83.55
2023-03-06T16:06:51.990Z,83.65
2023-03-06T16:12:03.628Z,83.20
2023-03-06T16:14:36.337Z,83.88
2023-03-06T16:19:45.222Z,83.38
2023-03-06T16:24:58.645Z,83.38
2023-03-06T16:27:35.909Z,83.17
2023-03-06T16:30:11.025Z,83.70
2023-03-06T16:38:20.450Z,83.18
2023-03-06T16:40:47.900Z,82.75
2023-03-06T16:43:23.147Z,82.18
2023-03-06T16:46:30.845Z,81.88
2023-03-06T16:51:49.616Z,81.72
2023-03-06T16:54:20.895Z,82.30
2023-03-06T16:59:43.281Z,82.77
2023-03-06T17:02:29.183Z,82.75
2023-03-06T19:09:04.815Z,75.33
2023-03-06T19:11:35.349Z,75.85
2023-03-06T19:14:11.144Z,75.10
2023-03-06T19:16:37.819Z,74.64
2023-03-06T19:19:07.839Z,74.74
2023-03-06T19:21:45.353Z,74.12
2023-03-06T19:24:30.630Z,74.68
2023-03-06T19:27:00.626Z,73.69
2023-03-06T19:29:33.713Z,74.16
2023-03-06T19:32:00.680Z,74.15
2023-03-06T19:34:28.737Z,74.14
2023-03-06T19:36:55.857Z,73.62
2023-03-06T19:39:22.764Z,73.77
2023-03-06T19:42:07.077Z,73.98
2023-03-06T19:44:57.228Z,74.16
2023-03-06T19:47:27.333Z,74.36
2023-03-06T19:50:04.933Z,74.12
2023-03-06T19:52:34.708Z,74.31
2023-03-06T19:55:02.465Z,73.90
2023-03-06T19:57:47.488Z,73.58
2023-03-06T20:00:29.254Z,73.28
2023-03-06T20:03:00.398Z,73.30
2023-03-06T20:05:35.403Z,73.55
2023-03-06T20:08:05.283Z,72.65
2023-03-06T20:10:36.131Z,73.17
2023-03-06T20:13:05.830Z,72.70
2023-03-06T20:15:36.895Z,73.27
2023-03-06T20:18:04.409Z,72.65
2023-03-06T20:20:31.094Z,72.68
2023-03-06T20:23:02.600Z,72.99
2023-03-06T20:25:29.177Z,73.40
2023-03-06T20:27:55.858Z,73.03
2023-03-06T20:30:23.088Z,72.63
2023-03-06T20:32:49.724Z,72.57
2023-03-06T20:35:16.519Z,72.27
2023-03-06T20:37:43.334Z,72.67
2023-03-06T20:40:10.765Z,72.43
2023-03-06T20:42:37.370Z,72.20
2023-03-06T20:45:04.337Z,72.85
2023-03-06T20:47:31.018Z,74.51
2023-03-06T20:49:57.739Z,75.91
2023-03-06T20:52:24.466Z,76.99
2023-03-06T20:54:51.285Z,78.82
2023-03-06T20:57:18.099Z,78.88
2023-03-06T20:59:45.491Z,79.20
2023-03-06T21:02:12.181Z,79.27
2023-03-06T21:04:41.107Z,79.78
2023-03-06T21:07:07.840Z,80.27
2023-03-06T21:09:37.714Z,81.04
2023-03-06T21:12:05.099Z,81.86
2023-03-06T21:14:31.839Z,81.95
2023-03-06T21:16:58.547Z,82.28
2023-03-06T21:19:25.537Z,82.56
2023-03-06T21:21:52.360Z,82.84
2023-03-06T21:24:20.966Z,82.37
2023-03-06T21:26:48.282Z,82.46
2023-03-06T21:29:14.938Z,82.51
2023-03-06T21:31:41.633Z,82.53
2023-03-06T21:34:08.332Z,82.88
2023-03-06T21:36:34.967Z,82.92
2023-03-06T21:39:01.859Z,83.10
2023-03-06T21:41:30.477Z,83.49
2023-03-06T21:43:59.615Z,84.14
2023-03-06T21:46:27.300Z,84.83
2023-03-06T21:48:54.838Z,85.09
2023-03-06T21:51:23.740Z,85.44
2023-03-06T21:53:52.147Z,85.60
2023-03-06T21:56:21.124Z,85.69
2023-03-06T21:58:47.994Z,85.76
2023-03-06T22:01:20.009Z,85.55
2023-03-06T22:03:46.714Z,85.10
2023-03-06T22:06:16.482Z,85.22
2023-03-06T22:08:44.137Z,84.20
2023-03-06T22:11:15.932Z,84.45
2023-03-06T22:13:42.973Z,83.47
2023-03-06T22:16:09.966Z,83.04
2023-03-06T22:18:37.530Z,81.66
2023-03-06T22:21:09.265Z,81.48
2023-03-06T22:23:36.405Z,81.55
2023-03-06T22:26:08.185Z,82.91
2023-03-06T22:28:35.276Z,82.91
2023-03-06T22:31:28.983Z,83.02
2023-03-06T22:33:58.170Z,82.98
2023-03-06T22:36:26.782Z,83.28
2023-03-06T22:38:58.146Z,82.18
2023-03-06T22:41:26.979Z,82.42
2023-03-06T22:43:59.247Z,81.71
2023-03-06T22:46:27.109Z,81.46
2023-03-06T22:48:56.269Z,81.01
2023-03-06T22:51:23.325Z,81.05
2023-03-06T22:53:51.046Z,81.57
2023-03-06T22:56:19.967Z,81.57
2023-03-06T22:58:47.884Z,82.43
2023-03-06T23:01:15.508Z,82.73
2023-03-06T23:03:45.504Z,82.83
2023-03-06T23:06:18.314Z,83.39
2023-03-06T23:08:49.953Z,84.04
2023-03-06T23:11:17.909Z,84.64
2023-03-06T23:13:44.460Z,85.10
2023-03-06T23:16:14.061Z,85.64
2023-03-06T23:18:44.227Z,86.23
2023-03-06T23:21:14.077Z,86.93
2023-03-06T23:23:41.431Z,87.41
2023-03-06T23:26:08.965Z,87.98
2023-03-06T23:28:36.170Z,87.88
2023-03-06T23:31:11.215Z,88.73
2023-03-06T23:33:38.955Z,88.50
2023-03-06T23:36:11.963Z,88.46
2023-03-06T23:38:39.370Z,88.90
2023-03-06T23:41:16.474Z,88.37
2023-03-06T23:43:47.798Z,88.47
2023-03-06T23:46:49.496Z,88.42
2023-03-06T23:49:16.857Z,88.84
2023-03-06T23:51:46.348Z,88.54
2023-03-06T23:54:15.847Z,88.47
2023-03-06T23:56:45.428Z,88.27
2023-03-06T23:59:15.174Z,88.34
